Insignia — V7DM2 — position and weather

sailwx.info

Track history (hours):
 
Tides and Currents Weather Stations Pressure Air Temp Water Temp Dewpoint Dewpoint Depression Visibility Wind Speed Wind Dir Waves Ship Positions

Insignia

Last reported at 2018-Jun-21 21:00 UTC. Time now 2018-Jun-24 09:19 UTC.
Position N 15°00' W 095°06'.

Length 180 m; draft 5.9 m.

Type: Passenger vessel. MMSI: 538001663.

Wind from 140 at 11 knots

Barometer 1013.0 mb
Air temperature 28.0 ° C
Visibility: greater than 5.4 NM
Water temperature 30.0 ° C

Date/timePositionNaut miles runAvg speedWind from/ knotsBaromVisibWave heightAir tempDewpointWater temp
2018-Jun-21 21:00N 15°00' W 095°06'   140 / 111013.0 5.4 28.0 30.0
2018-Jun-17 01:35N 32°10' W 117°21'29 2.4
2018-Jun-16 13:34N 32°38' W 117°14'6 9.6
2018-Jun-16 12:55N 32°37' W 117°21'511.7
2018-Jun-16 12:30N 32°38' W 117°27'611.9
2018-Jun-16 12:00N 32°38' W 117°34'612.2
2018-Jun-16 11:30N 32°39' W 117°41'611.3
2018-Jun-16 11:00N 32°40' W 117°48'4 7.0
2018-Jun-16 10:30N 32°43' W 117°50'510.5
2018-Jun-16 10:00N 32°48' W 117°50'510.7
2018-Jun-16 09:30N 32°53' W 117°51'510.7
2018-Jun-16 09:00N 32°59' W 117°52'510.9
2018-Jun-16 08:30N 33°04' W 117°55'611.1
2018-Jun-16 08:00N 33°09' W 117°58'510.8
2018-Jun-16 07:30N 33°13' W 118°02'810.8
2018-Jun-16 06:45N 33°20' W 118°07'311.5
2018-Jun-16 06:29N 33°23' W 118°08'611.2
2018-Jun-16 05:58N 33°28' W 118°10'512.0
2018-Jun-16 05:30N 33°34' W 118°12'612.7
2018-Jun-16 05:00N 33°40' W 118°14'4 8.8
2018-Jun-16 04:30N 33°44' W 118°16'1 2.3
2018-Jun-16 04:00N 33°45' W 118°17'0 0.0
2018-Jun-16 03:30N 33°45' W 118°17'0 0.0
2018-Jun-16 03:00N 33°45' W 118°17'0 0.0
2018-Jun-16 02:30N 33°45' W 118°17'0 0.0
2018-Jun-16 02:00N 33°45' W 118°17'0 0.0
2018-Jun-16 01:27N 33°45' W 118°17'0 0.0
2018-Jun-16 01:00N 33°45' W 118°17'0 0.0
2018-Jun-16 00:30N 33°45' W 118°17'0 0.0
2018-Jun-16 00:00N 33°45' W 118°17'0 0.0
2018-Jun-15 23:30N 33°45' W 118°17'0 0.0
2018-Jun-15 23:00N 33°45' W 118°17'0 0.0
2018-Jun-15 22:30N 33°45' W 118°17'0 0.0
2018-Jun-15 22:00N 33°45' W 118°17'0 0.0
2018-Jun-15 21:30N 33°45' W 118°17'0 0.0
2018-Jun-15 21:00N 33°45' W 118°17'0 0.0
2018-Jun-15 20:30N 33°45' W 118°17'0 0.0
2018-Jun-15 19:48N 33°45' W 118°17'0 0.0
2018-Jun-15 19:30N 33°45' W 118°17'0 0.0
2018-Jun-15 19:00N 33°45' W 118°17'0 0.0
2018-Jun-15 18:30N 33°45' W 118°17'0 0.0
2018-Jun-15 18:00N 33°45' W 118°17'0 0.0
2018-Jun-15 17:30N 33°45' W 118°17'0 0.0
2018-Jun-15 17:00N 33°45' W 118°17'0 0.0
2018-Jun-15 16:30N 33°45' W 118°17'0 0.0
2018-Jun-15 15:54N 33°45' W 118°17'0 0.0
2018-Jun-15 15:30N 33°45' W 118°17'0 0.0
2018-Jun-15 15:00N 33°45' W 118°17'0 0.0
2018-Jun-15 14:30N 33°45' W 118°17'0 0.9
2018-Jun-15 14:00N 33°44' W 118°17'3 6.6
2018-Jun-15 13:30N 33°42' W 118°14'5 9.9
2018-Jun-15 13:00N 33°37' W 118°11'815.3
2018-Jun-15 12:30N 33°30' W 118°08'1118.4
2018-Jun-15 11:55N 33°20' W 118°03'715.7
2018-Jun-15 11:27N 33°15' W 118°10'818.5
2018-Jun-15 11:00N 33°12' W 118°19'918.6
2018-Jun-15 10:30N 33°10' W 118°30'918.1
2018-Jun-15 10:00N 33°07' W 118°40'917.4
2018-Jun-15 09:30N 33°04' W 118°50'1017.7
2018-Jun-15 08:57N 32°58' W 118°59'817.6
2018-Jun-15 08:31N 32°54' W 119°07'917.6
2018-Jun-15 08:01N 32°49' W 119°16'1117.8
2018-Jun-15 07:23N 32°45' W 119°28'2517.5
2018-Jun-15 05:59N 32°39' W 119°56'2217.8
2018-Jun-15 04:46N 32°32' W 120°21'517.9
2018-Jun-15 04:29N 32°31' W 120°26'917.4
2018-Jun-15 03:59N 32°28' W 120°36'1317.8
2018-Jun-15 03:16N 32°25' W 120°51'618.6
2018-Jun-15 02:59N 32°23' W 120°57'2518.1
2018-Jun-15 01:37N 32°16' W 121°25'317.2
2018-Jun-15 01:28N 32°15' W 121°28'918.2
2018-Jun-15 00:57N 32°12' W 121°38'818.0
2018-Jun-15 00:30N 32°10' W 121°48'1018.1
2018-Jun-14 23:58N 32°07' W 121°58'1218.2
2018-Jun-14 23:19N 32°04' W 122°12'618.4
2018-Jun-14 23:00N 32°02' W 122°18'1018.3
2018-Jun-14 22:26N 31°60' W 122°30'3017.8
2018-Jun-14 20:44N 31°50' W 123°04'  
Track history (hours):
 
Tides and Currents Weather Stations Pressure Air Temp Water Temp Dewpoint Dewpoint Depression Visibility Wind Speed Wind Dir Waves Ship Positions

Insignia

Last reported at 2018-Jun-21 21:00 UTC. Time now 2018-Jun-24 09:19 UTC.
Position N 15°00' W 095°06'.

Length 180 m; draft 5.9 m.

Type: Passenger vessel. MMSI: 538001663.

Wind from 140 at 11 knots

Barometer 1013.0 mb
Air temperature 28.0 ° C
Visibility: greater than 5.4 NM
Water temperature 30.0 ° C

Date/timePositionNaut miles runAvg speedWind from/ knotsBaromVisibWave heightAir tempDewpointWater temp
2018-Jun-21 21:00N 15°00' W 095°06'   140 / 111013.0 5.4 28.0 30.0
2018-Jun-17 01:35N 32°10' W 117°21'29 2.4
2018-Jun-16 13:34N 32°38' W 117°14'6 9.6
2018-Jun-16 12:55N 32°37' W 117°21'511.7
2018-Jun-16 12:30N 32°38' W 117°27'611.9
2018-Jun-16 12:00N 32°38' W 117°34'612.2
2018-Jun-16 11:30N 32°39' W 117°41'611.3
2018-Jun-16 11:00N 32°40' W 117°48'4 7.0
2018-Jun-16 10:30N 32°43' W 117°50'510.5
2018-Jun-16 10:00N 32°48' W 117°50'510.7
2018-Jun-16 09:30N 32°53' W 117°51'510.7
2018-Jun-16 09:00N 32°59' W 117°52'510.9
2018-Jun-16 08:30N 33°04' W 117°55'611.1
2018-Jun-16 08:00N 33°09' W 117°58'510.8
2018-Jun-16 07:30N 33°13' W 118°02'810.8
2018-Jun-16 06:45N 33°20' W 118°07'311.5
2018-Jun-16 06:29N 33°23' W 118°08'611.2
2018-Jun-16 05:58N 33°28' W 118°10'512.0
2018-Jun-16 05:30N 33°34' W 118°12'612.7
2018-Jun-16 05:00N 33°40' W 118°14'4 8.8
2018-Jun-16 04:30N 33°44' W 118°16'1 2.3
2018-Jun-16 04:00N 33°45' W 118°17'0 0.0
2018-Jun-16 03:30N 33°45' W 118°17'0 0.0
2018-Jun-16 03:00N 33°45' W 118°17'0 0.0
2018-Jun-16 02:30N 33°45' W 118°17'0 0.0
2018-Jun-16 02:00N 33°45' W 118°17'0 0.0
2018-Jun-16 01:27N 33°45' W 118°17'0 0.0
2018-Jun-16 01:00N 33°45' W 118°17'0 0.0
2018-Jun-16 00:30N 33°45' W 118°17'0 0.0
2018-Jun-16 00:00N 33°45' W 118°17'0 0.0
2018-Jun-15 23:30N 33°45' W 118°17'0 0.0
2018-Jun-15 23:00N 33°45' W 118°17'0 0.0
2018-Jun-15 22:30N 33°45' W 118°17'0 0.0
2018-Jun-15 22:00N 33°45' W 118°17'0 0.0
2018-Jun-15 21:30N 33°45' W 118°17'0 0.0
2018-Jun-15 21:00N 33°45' W 118°17'0 0.0
2018-Jun-15 20:30N 33°45' W 118°17'0 0.0
2018-Jun-15 19:48N 33°45' W 118°17'0 0.0
2018-Jun-15 19:30N 33°45' W 118°17'0 0.0
2018-Jun-15 19:00N 33°45' W 118°17'0 0.0
2018-Jun-15 18:30N 33°45' W 118°17'0 0.0
2018-Jun-15 18:00N 33°45' W 118°17'0 0.0
2018-Jun-15 17:30N 33°45' W 118°17'0 0.0
2018-Jun-15 17:00N 33°45' W 118°17'0 0.0
2018-Jun-15 16:30N 33°45' W 118°17'0 0.0
2018-Jun-15 15:54N 33°45' W 118°17'0 0.0
2018-Jun-15 15:30N 33°45' W 118°17'0 0.0
2018-Jun-15 15:00N 33°45' W 118°17'0 0.0
2018-Jun-15 14:30N 33°45' W 118°17'0 0.9
2018-Jun-15 14:00N 33°44' W 118°17'3 6.6
2018-Jun-15 13:30N 33°42' W 118°14'5 9.9
2018-Jun-15 13:00N 33°37' W 118°11'815.3
2018-Jun-15 12:30N 33°30' W 118°08'1118.4
2018-Jun-15 11:55N 33°20' W 118°03'715.7
2018-Jun-15 11:27N 33°15' W 118°10'818.5
2018-Jun-15 11:00N 33°12' W 118°19'918.6
2018-Jun-15 10:30N 33°10' W 118°30'918.1
2018-Jun-15 10:00N 33°07' W 118°40'917.4
2018-Jun-15 09:30N 33°04' W 118°50'1017.7
2018-Jun-15 08:57N 32°58' W 118°59'817.6
2018-Jun-15 08:31N 32°54' W 119°07'917.6
2018-Jun-15 08:01N 32°49' W 119°16'1117.8
2018-Jun-15 07:23N 32°45' W 119°28'2517.5
2018-Jun-15 05:59N 32°39' W 119°56'2217.8
2018-Jun-15 04:46N 32°32' W 120°21'517.9
2018-Jun-15 04:29N 32°31' W 120°26'917.4
2018-Jun-15 03:59N 32°28' W 120°36'1317.8
2018-Jun-15 03:16N 32°25' W 120°51'618.6
2018-Jun-15 02:59N 32°23' W 120°57'2518.1
2018-Jun-15 01:37N 32°16' W 121°25'317.2
2018-Jun-15 01:28N 32°15' W 121°28'918.2
2018-Jun-15 00:57N 32°12' W 121°38'818.0
2018-Jun-15 00:30N 32°10' W 121°48'1018.1
2018-Jun-14 23:58N 32°07' W 121°58'1218.2
2018-Jun-14 23:19N 32°04' W 122°12'618.4
2018-Jun-14 23:00N 32°02' W 122°18'1018.3
2018-Jun-14 22:26N 31°60' W 122°30'3017.8
2018-Jun-14 20:44N 31°50' W 123°04'  

Dump ship's entire track history